sensor_id;sensor_type;location;lat;lon;timestamp;pressure;altitude;pressure_sealevel;temperature;humidity
68822;BME280;55834;50.870;4.606;2022-11-04T00:01:43;99579.13;;;8.93;60.63
68822;BME280;55834;50.870;4.606;2022-11-04T00:04:09;99580.88;;;8.48;61.41
68822;BME280;55834;50.870;4.606;2022-11-04T00:06:36;99585.31;;;8.68;61.04
68822;BME280;55834;50.870;4.606;2022-11-04T00:09:02;99574.88;;;8.67;61.53
68822;BME280;55834;50.870;4.606;2022-11-04T00:11:28;99577.50;;;8.67;61.46
68822;BME280;55834;50.870;4.606;2022-11-04T00:14:13;99592.56;;;8.85;59.93
68822;BME280;55834;50.870;4.606;2022-11-04T00:16:38;99594.38;;;8.61;60.88
68822;BME280;55834;50.870;4.606;2022-11-04T00:19:22;99581.72;;;8.49;60.61
68822;BME280;55834;50.870;4.606;2022-11-04T00:21:48;99586.22;;;8.22;61.59
68822;BME280;55834;50.870;4.606;2022-11-04T00:24:32;99589.50;;;8.74;60.40
68822;BME280;55834;50.870;4.606;2022-11-04T00:27:11;99591.88;;;8.58;59.92
68822;BME280;55834;50.870;4.606;2022-11-04T00:29:55;99595.97;;;8.65;60.86
68822;BME280;55834;50.870;4.606;2022-11-04T00:32:21;99596.06;;;8.86;59.71
68822;BME280;55834;50.870;4.606;2022-11-04T00:35:05;99593.72;;;9.00;58.93
68822;BME280;55834;50.870;4.606;2022-11-04T00:37:30;99607.31;;;9.11;58.76
68822;BME280;55834;50.870;4.606;2022-11-04T00:39:56;99608.56;;;9.24;58.00
68822;BME280;55834;50.870;4.606;2022-11-04T00:42:21;99613.03;;;9.22;56.83
68822;BME280;55834;50.870;4.606;2022-11-04T00:44:46;99615.09;;;9.14;57.26
68822;BME280;55834;50.870;4.606;2022-11-04T00:47:12;99615.44;;;9.07;58.01
68822;BME280;55834;50.870;4.606;2022-11-04T00:49:37;99620.63;;;9.08;57.59
68822;BME280;55834;50.870;4.606;2022-11-04T00:52:03;99628.34;;;9.13;57.84
68822;BME280;55834;50.870;4.606;2022-11-04T00:54:28;99621.91;;;8.98;57.96
68822;BME280;55834;50.870;4.606;2022-11-04T00:56:53;99624.59;;;8.74;59.18
68822;BME280;55834;50.870;4.606;2022-11-04T00:59:19;99630.06;;;8.68;60.34
68822;BME280;55834;50.870;4.606;2022-11-04T01:01:44;99623.66;;;8.97;59.74
68822;BME280;55834;50.870;4.606;2022-11-04T01:04:11;99623.16;;;8.66;60.51
68822;BME280;55834;50.870;4.606;2022-11-04T01:06:36;99628.31;;;8.69;60.01
68822;BME280;55834;50.870;4.606;2022-11-04T01:09:05;99628.56;;;8.85;60.18
68822;BME280;55834;50.870;4.606;2022-11-04T01:11:30;99625.47;;;8.51;60.18
68822;BME280;55834;50.870;4.606;2022-11-04T01:13:57;99630.06;;;8.45;61.16
68822;BME280;55834;50.870;4.606;2022-11-04T01:16:23;99624.22;;;8.13;61.52
68822;BME280;55834;50.870;4.606;2022-11-04T01:18:48;99619.22;;;8.30;61.88
68822;BME280;55834;50.870;4.606;2022-11-04T01:21:15;99622.28;;;8.65;61.35
68822;BME280;55834;50.870;4.606;2022-11-04T01:23:42;99618.13;;;8.36;61.79
68822;BME280;55834;50.870;4.606;2022-11-04T01:26:15;99623.34;;;8.61;61.12
68822;BME280;55834;50.870;4.606;2022-11-04T01:28:41;99614.22;;;8.70;61.16
68822;BME280;55834;50.870;4.606;2022-11-04T01:31:18;99612.84;;;8.83;60.02
68822;BME280;55834;50.870;4.606;2022-11-04T01:33:45;99615.56;;;8.80;60.27
68822;BME280;55834;50.870;4.606;2022-11-04T01:36:11;99620.25;;;8.50;60.60
68822;BME280;55834;50.870;4.606;2022-11-04T01:38:36;99623.69;;;8.52;61.11
68822;BME280;55834;50.870;4.606;2022-11-04T01:41:03;99625.38;;;8.53;60.78
68822;BME280;55834;50.870;4.606;2022-11-04T01:43:52;99629.00;;;8.27;61.31
68822;BME280;55834;50.870;4.606;2022-11-04T01:46:43;99620.22;;;8.51;60.45
68822;BME280;55834;50.870;4.606;2022-11-04T01:49:32;99620.53;;;8.66;60.12
68822;BME280;55834;50.870;4.606;2022-11-04T01:52:06;99612.97;;;8.56;60.55
68822;BME280;55834;50.870;4.606;2022-11-04T01:54:34;99629.50;;;8.36;59.92
68822;BME280;55834;50.870;4.606;2022-11-04T01:57:01;99629.59;;;8.10;62.36
68822;BME280;55834;50.870;4.606;2022-11-04T01:59:34;99622.81;;;8.03;61.78
68822;BME280;55834;50.870;4.606;2022-11-04T02:02:01;99618.00;;;8.39;61.55
68822;BME280;55834;50.870;4.606;2022-11-04T02:04:28;99625.50;;;8.50;60.23
68822;BME280;55834;50.870;4.606;2022-11-04T02:07:06;99621.28;;;8.46;59.63
68822;BME280;55834;50.870;4.606;2022-11-04T02:09:33;99618.34;;;8.53;59.26
68822;BME280;55834;50.870;4.606;2022-11-04T02:12:00;99619.50;;;8.23;59.32
68822;BME280;55834;50.870;4.606;2022-11-04T02:14:45;99621.09;;;8.50;60.16
68822;BME280;55834;50.870;4.606;2022-11-04T02:23:15;99618.47;;;8.27;60.33
68822;BME280;55834;50.870;4.606;2022-11-04T02:29:06;99610.22;;;8.12;60.89
68822;BME280;55834;50.870;4.606;2022-11-04T02:37:07;99603.84;;;7.95;60.66
68822;BME280;55834;50.870;4.606;2022-11-04T02:39:41;99602.41;;;8.11;60.48
68822;BME280;55834;50.870;4.606;2022-11-04T02:42:30;99599.91;;;8.08;60.42
68822;BME280;55834;50.870;4.606;2022-11-04T02:45:36;99595.16;;;8.18;60.13
68822;BME280;55834;50.870;4.606;2022-11-04T02:48:06;99589.16;;;8.14;59.88
68822;BME280;55834;50.870;4.606;2022-11-04T02:50:40;99592.16;;;8.50;59.84
68822;BME280;55834;50.870;4.606;2022-11-04T02:53:18;99587.19;;;8.66;59.05
68822;BME280;55834;50.870;4.606;2022-11-04T02:55:49;99592.13;;;8.74;58.60
68822;BME280;55834;50.870;4.606;2022-11-04T02:58:28;99587.50;;;8.80;58.69
68822;BME280;55834;50.870;4.606;2022-11-04T03:00:56;99595.06;;;8.88;59.06
68822;BME280;55834;50.870;4.606;2022-11-04T03:03:29;99588.53;;;8.98;58.45
68822;BME280;55834;50.870;4.606;2022-11-04T03:05:59;99590.13;;;9.02;57.94
68822;BME280;55834;50.870;4.606;2022-11-04T03:08:29;99591.53;;;9.11;57.94
68822;BME280;55834;50.870;4.606;2022-11-04T03:11:22;99584.97;;;8.99;57.89
68822;BME280;55834;50.870;4.606;2022-11-04T03:13:49;99580.69;;;8.97;58.41
68822;BME280;55834;50.870;4.606;2022-11-04T03:16:19;99578.56;;;9.07;58.59
68822;BME280;55834;50.870;4.606;2022-11-04T03:21:23;99576.91;;;9.04;58.61
68822;BME280;55834;50.870;4.606;2022-11-04T03:23:49;99573.72;;;9.18;58.63
68822;BME280;55834;50.870;4.606;2022-11-04T03:26:24;99574.44;;;9.21;57.84
68822;BME280;55834;50.870;4.606;2022-11-04T03:34:22;99586.28;;;9.33;57.67
68822;BME280;55834;50.870;4.606;2022-11-04T03:36:48;99588.69;;;9.38;57.81
68822;BME280;55834;50.870;4.606;2022-11-04T03:39:13;99590.34;;;9.40;57.41
68822;BME280;55834;50.870;4.606;2022-11-04T03:41:42;99599.91;;;9.43;57.64
68822;BME280;55834;50.870;4.606;2022-11-04T03:44:11;99600.91;;;9.40;57.62
68822;BME280;55834;50.870;4.606;2022-11-04T03:46:37;99599.00;;;9.44;57.34
68822;BME280;55834;50.870;4.606;2022-11-04T03:49:04;99604.91;;;9.49;57.54
68822;BME280;55834;50.870;4.606;2022-11-04T03:51:30;99598.75;;;9.50;57.59
68822;BME280;55834;50.870;4.606;2022-11-04T03:53:55;99602.16;;;9.52;57.25
68822;BME280;55834;50.870;4.606;2022-11-04T04:01:48;99592.41;;;9.54;57.29
68822;BME280;55834;50.870;4.606;2022-11-04T04:07:34;99586.34;;;9.52;57.06
68822;BME280;55834;50.870;4.606;2022-11-04T04:10:53;99593.47;;;9.50;57.34
68822;BME280;55834;50.870;4.606;2022-11-04T04:13:36;99594.94;;;9.57;57.52
68822;BME280;55834;50.870;4.606;2022-11-04T04:16:23;99596.00;;;9.53;57.67
68822;BME280;55834;50.870;4.606;2022-11-04T04:18:57;99598.41;;;9.58;57.53
68822;BME280;55834;50.870;4.606;2022-11-04T04:21:27;99593.75;;;9.64;57.49
68822;BME280;55834;50.870;4.606;2022-11-04T04:23:55;99600.59;;;9.68;57.04
68822;BME280;55834;50.870;4.606;2022-11-04T04:26:43;99600.53;;;9.70;57.06
68822;BME280;55834;50.870;4.606;2022-11-04T04:29:30;99598.75;;;9.70;56.81
68822;BME280;55834;50.870;4.606;2022-11-04T04:31:56;99596.25;;;9.67;56.79
68822;BME280;55834;50.870;4.606;2022-11-04T04:37:03;99607.69;;;9.66;56.84
68822;BME280;55834;50.870;4.606;2022-11-04T04:39:51;99605.28;;;9.62;56.81
68822;BME280;55834;50.870;4.606;2022-11-04T04:42:36;99604.63;;;9.57;57.36
68822;BME280;55834;50.870;4.606;2022-11-04T04:45:26;99599.22;;;9.60;57.04
68822;BME280;55834;50.870;4.606;2022-11-04T04:47:53;99603.38;;;9.65;57.30
68822;BME280;55834;50.870;4.606;2022-11-04T04:50:20;99603.19;;;9.70;56.87
68822;BME280;55834;50.870;4.606;2022-11-04T04:52:51;99606.59;;;9.72;57.09
68822;BME280;55834;50.870;4.606;2022-11-04T04:55:17;99614.34;;;9.75;57.10
68822;BME280;55834;50.870;4.606;2022-11-04T04:57:43;99613.47;;;9.76;56.98
68822;BME280;55834;50.870;4.606;2022-11-04T05:00:14;99609.88;;;9.77;57.02
68822;BME280;55834;50.870;4.606;2022-11-04T05:02:39;99614.22;;;9.78;57.15
68822;BME280;55834;50.870;4.606;2022-11-04T05:05:05;99613.47;;;9.76;57.15
68822;BME280;55834;50.870;4.606;2022-11-04T05:07:31;99617.75;;;9.79;57.15
68822;BME280;55834;50.870;4.606;2022-11-04T05:09:56;99618.66;;;9.78;57.31
68822;BME280;55834;50.870;4.606;2022-11-04T05:12:22;99619.44;;;9.80;57.07
68822;BME280;55834;50.870;4.606;2022-11-04T05:14:47;99618.59;;;9.79;57.21
68822;BME280;55834;50.870;4.606;2022-11-04T05:17:13;99616.00;;;9.78;57.20
68822;BME280;55834;50.870;4.606;2022-11-04T05:19:39;99620.31;;;9.80;57.17
68822;BME280;55834;50.870;4.606;2022-11-04T05:22:04;99617.63;;;9.82;57.27
68822;BME280;55834;50.870;4.606;2022-11-04T05:24:29;99629.84;;;9.83;57.12
68822;BME280;55834;50.870;4.606;2022-11-04T05:26:55;99623.72;;;9.82;57.08
68822;BME280;55834;50.870;4.606;2022-11-04T05:29:20;99620.25;;;9.82;57.18
68822;BME280;55834;50.870;4.606;2022-11-04T05:31:46;99626.28;;;9.84;57.23
68822;BME280;55834;50.870;4.606;2022-11-04T05:34:12;99621.91;;;9.84;57.48
68822;BME280;55834;50.870;4.606;2022-11-04T05:36:37;99628.75;;;9.88;57.33
68822;BME280;55834;50.870;4.606;2022-11-04T05:39:03;99633.22;;;9.86;57.61
68822;BME280;55834;50.870;4.606;2022-11-04T05:41:30;99641.06;;;9.88;57.36
68822;BME280;55834;50.870;4.606;2022-11-04T05:43:57;99643.72;;;9.88;57.52
68822;BME280;55834;50.870;4.606;2022-11-04T05:46:24;99636.84;;;9.84;56.96
68822;BME280;55834;50.870;4.606;2022-11-04T05:48:49;99646.47;;;9.85;57.44
68822;BME280;55834;50.870;4.606;2022-11-04T05:51:17;99645.41;;;9.89;57.80
68822;BME280;55834;50.870;4.606;2022-11-04T05:53:43;99648.13;;;9.87;57.50
68822;BME280;55834;50.870;4.606;2022-11-04T05:56:08;99653.41;;;9.87;57.67
68822;BME280;55834;50.870;4.606;2022-11-04T05:58:33;99660.38;;;9.88;57.99
68822;BME280;55834;50.870;4.606;2022-11-04T06:01:29;99666.22;;;9.75;58.29
68822;BME280;55834;50.870;4.606;2022-11-04T06:03:57;99664.31;;;9.78;58.78
68822;BME280;55834;50.870;4.606;2022-11-04T06:06:23;99667.47;;;9.86;58.86
68822;BME280;55834;50.870;4.606;2022-11-04T06:08:51;99668.19;;;9.90;58.70
68822;BME280;55834;50.870;4.606;2022-11-04T06:11:17;99666.19;;;9.97;58.45
68822;BME280;55834;50.870;4.606;2022-11-04T06:13:43;99674.88;;;9.99;58.39
68822;BME280;55834;50.870;4.606;2022-11-04T06:16:08;99677.44;;;10.00;58.47
68822;BME280;55834;50.870;4.606;2022-11-04T06:18:34;99678.25;;;10.02;58.43
68822;BME280;55834;50.870;4.606;2022-11-04T06:21:07;99680.03;;;10.02;58.56
68822;BME280;55834;50.870;4.606;2022-11-04T06:23:33;99682.66;;;10.02;58.43
68822;BME280;55834;50.870;4.606;2022-11-04T06:26:00;99682.66;;;10.02;58.82
68822;BME280;55834;50.870;4.606;2022-11-04T06:28:25;99685.31;;;10.02;58.84
68822;BME280;55834;50.870;4.606;2022-11-04T06:30:50;99689.78;;;10.00;58.65
68822;BME280;55834;50.870;4.606;2022-11-04T06:33:16;99689.69;;;10.01;59.01
68822;BME280;55834;50.870;4.606;2022-11-04T06:35:41;99695.78;;;10.03;58.87
68822;BME280;55834;50.870;4.606;2022-11-04T06:38:06;99701.78;;;10.07;58.78
68822;BME280;55834;50.870;4.606;2022-11-04T06:40:32;99702.63;;;10.07;58.70
68822;BME280;55834;50.870;4.606;2022-11-04T06:42:57;99700.88;;;10.08;58.63
68822;BME280;55834;50.870;4.606;2022-11-04T06:45:22;99711.41;;;10.08;58.78
68822;BME280;55834;50.870;4.606;2022-11-04T06:47:48;99703.50;;;10.08;58.68
68822;BME280;55834;50.870;4.606;2022-11-04T06:50:13;99715.75;;;10.09;58.59
68822;BME280;55834;50.870;4.606;2022-11-04T06:52:38;99713.06;;;10.10;58.62
68822;BME280;55834;50.870;4.606;2022-11-04T06:55:04;99720.91;;;10.12;58.65
68822;BME280;55834;50.870;4.606;2022-11-04T06:57:30;99717.28;;;10.14;58.69
68822;BME280;55834;50.870;4.606;2022-11-04T06:59:55;99722.56;;;10.14;58.77
68822;BME280;55834;50.870;4.606;2022-11-04T07:02:21;99718.13;;;10.15;58.49
68822;BME280;55834;50.870;4.606;2022-11-04T07:04:46;99727.69;;;10.17;58.65
68822;BME280;55834;50.870;4.606;2022-11-04T07:07:11;99721.47;;;10.18;58.51
68822;BME280;55834;50.870;4.606;2022-11-04T07:09:36;99724.19;;;10.17;58.63
68822;BME280;55834;50.870;4.606;2022-11-04T07:12:02;99726.63;;;10.22;58.43
68822;BME280;55834;50.870;4.606;2022-11-04T07:14:29;99724.00;;;10.22;58.48
68822;BME280;55834;50.870;4.606;2022-11-04T07:16:55;99724.91;;;10.21;58.66
68822;BME280;55834;50.870;4.606;2022-11-04T07:19:20;99716.97;;;10.22;58.57
68822;BME280;55834;50.870;4.606;2022-11-04T07:21:45;99727.38;;;10.25;58.47
68822;BME280;55834;50.870;4.606;2022-11-04T07:24:11;99724.75;;;10.25;58.42
68822;BME280;55834;50.870;4.606;2022-11-04T07:26:36;99723.94;;;10.23;58.23
68822;BME280;55834;50.870;4.606;2022-11-04T07:29:02;99738.19;;;10.19;57.97
68822;BME280;55834;50.870;4.606;2022-11-04T07:31:27;99737.53;;;10.14;58.00
68822;BME280;55834;50.870;4.606;2022-11-04T07:33:53;99744.44;;;10.16;58.33
68822;BME280;55834;50.870;4.606;2022-11-04T07:36:18;99735.59;;;10.17;58.60
68822;BME280;55834;50.870;4.606;2022-11-04T07:38:44;99743.47;;;10.19;58.40
68822;BME280;55834;50.870;4.606;2022-11-04T07:41:10;99755.19;;;10.12;58.30
68822;BME280;55834;50.870;4.606;2022-11-04T07:43:36;99755.56;;;10.03;58.75
68822;BME280;55834;50.870;4.606;2022-11-04T07:46:09;99758.13;;;10.04;58.91
68822;BME280;55834;50.870;4.606;2022-11-04T07:48:36;99766.72;;;10.09;58.86
68822;BME280;55834;50.870;4.606;2022-11-04T07:51:03;99766.59;;;10.12;58.55
68822;BME280;55834;50.870;4.606;2022-11-04T07:53:29;99761.13;;;10.17;58.63
68822;BME280;55834;50.870;4.606;2022-11-04T07:55:54;99774.06;;;10.23;58.60
68822;BME280;55834;50.870;4.606;2022-11-04T07:58:20;99775.56;;;10.29;58.87
68822;BME280;55834;50.870;4.606;2022-11-04T08:00:46;99783.34;;;10.32;59.04
68822;BME280;55834;50.870;4.606;2022-11-04T08:03:11;99787.56;;;10.36;58.84
68822;BME280;55834;50.870;4.606;2022-11-04T08:05:37;99790.06;;;10.39;58.95
68822;BME280;55834;50.870;4.606;2022-11-04T08:08:02;99799.66;;;10.42;58.74
68822;BME280;55834;50.870;4.606;2022-11-04T08:10:28;99803.94;;;10.44;58.34
68822;BME280;55834;50.870;4.606;2022-11-04T08:12:54;99802.16;;;10.45;58.24
68822;BME280;55834;50.870;4.606;2022-11-04T08:15:19;99801.25;;;10.46;58.53
68822;BME280;55834;50.870;4.606;2022-11-04T08:17:44;99810.06;;;10.45;58.60
68822;BME280;55834;50.870;4.606;2022-11-04T08:20:10;99805.59;;;10.47;58.75
68822;BME280;55834;50.870;4.606;2022-11-04T08:22:36;99818.34;;;10.37;58.07
68822;BME280;55834;50.870;4.606;2022-11-04T08:25:01;99815.63;;;10.38;58.43
68822;BME280;55834;50.870;4.606;2022-11-04T08:27:26;99818.47;;;10.12;58.78
68822;BME280;55834;50.870;4.606;2022-11-04T08:29:52;99824.06;;;10.26;58.26
68822;BME280;55834;50.870;4.606;2022-11-04T08:32:17;99825.63;;;10.30;58.75
68822;BME280;55834;50.870;4.606;2022-11-04T08:34:43;99836.00;;;10.35;59.12
68822;BME280;55834;50.870;4.606;2022-11-04T08:37:08;99841.16;;;10.16;58.72
68822;BME280;55834;50.870;4.606;2022-11-04T08:39:34;99831.69;;;10.32;59.02
68822;BME280;55834;50.870;4.606;2022-11-04T08:41:59;99840.41;;;10.34;59.02
68822;BME280;55834;50.870;4.606;2022-11-04T08:44:25;99838.59;;;10.36;58.89
68822;BME280;55834;50.870;4.606;2022-11-04T08:46:50;99845.50;;;10.39;59.00
68822;BME280;55834;50.870;4.606;2022-11-04T08:49:15;99854.94;;;10.45;59.06
68822;BME280;55834;50.870;4.606;2022-11-04T08:51:43;99856.59;;;10.47;59.25
68822;BME280;55834;50.870;4.606;2022-11-04T08:54:09;99866.16;;;10.51;59.19
68822;BME280;55834;50.870;4.606;2022-11-04T08:56:37;99865.16;;;10.54;59.07
68822;BME280;55834;50.870;4.606;2022-11-04T08:59:04;99866.91;;;10.53;59.45
68822;BME280;55834;50.870;4.606;2022-11-04T09:01:31;99870.97;;;10.40;59.22
68822;BME280;55834;50.870;4.606;2022-11-04T09:03:57;99866.69;;;10.37;60.29
68822;BME280;55834;50.870;4.606;2022-11-04T09:06:26;99868.84;;;10.50;59.66
68822;BME280;55834;50.870;4.606;2022-11-04T09:08:52;99874.59;;;10.59;59.16
68822;BME280;55834;50.870;4.606;2022-11-04T09:11:21;99877.88;;;10.65;59.63
68822;BME280;55834;50.870;4.606;2022-11-04T09:13:47;99882.03;;;10.70;59.24
68822;BME280;55834;50.870;4.606;2022-11-04T09:16:12;99873.00;;;10.76;59.44
68822;BME280;55834;50.870;4.606;2022-11-04T09:18:38;99881.59;;;10.81;59.12
68822;BME280;55834;50.870;4.606;2022-11-04T09:21:05;99876.13;;;10.86;59.03
68822;BME280;55834;50.870;4.606;2022-11-04T09:23:31;99877.63;;;10.91;58.82
68822;BME280;55834;50.870;4.606;2022-11-04T09:25:57;99890.59;;;10.97;58.46
68822;BME280;55834;50.870;4.606;2022-11-04T09:28:23;99889.56;;;11.00;58.60
68822;BME280;55834;50.870;4.606;2022-11-04T09:30:49;99899.00;;;11.05;58.54
68822;BME280;55834;50.870;4.606;2022-11-04T09:33:15;99900.66;;;11.08;58.65
68822;BME280;55834;50.870;4.606;2022-11-04T09:35:40;99897.81;;;11.13;58.99
68822;BME280;55834;50.870;4.606;2022-11-04T09:38:06;99902.88;;;11.17;58.71
68822;BME280;55834;50.870;4.606;2022-11-04T09:40:34;99906.13;;;11.24;58.81
68822;BME280;55834;50.870;4.606;2022-11-04T09:43:29;99910.63;;;11.22;58.87
68822;BME280;55834;50.870;4.606;2022-11-04T09:45:58;99915.84;;;11.23;59.08
68822;BME280;55834;50.870;4.606;2022-11-04T09:48:33;99922.50;;;11.32;58.79
68822;BME280;55834;50.870;4.606;2022-11-04T09:51:02;99918.75;;;11.38;58.19
68822;BME280;55834;50.870;4.606;2022-11-04T09:53:40;99927.31;;;11.43;58.39
68822;BME280;55834;50.870;4.606;2022-11-04T09:56:14;99930.69;;;11.46;58.44
68822;BME280;55834;50.870;4.606;2022-11-04T09:58:40;99932.13;;;11.53;58.84
68822;BME280;55834;50.870;4.606;2022-11-04T10:01:30;99937.81;;;11.65;58.72
68822;BME280;55834;50.870;4.606;2022-11-04T10:06:53;99946.63;;;11.84;58.12
68822;BME280;55834;50.870;4.606;2022-11-04T10:12:29;99947.03;;;11.94;57.38
68822;BME280;55834;50.870;4.606;2022-11-04T10:24:18;99973.13;;;11.64;58.89
68822;BME280;55834;50.870;4.606;2022-11-04T10:26:46;99971.75;;;11.74;57.17
68822;BME280;55834;50.870;4.606;2022-11-04T10:31:57;99982.03;;;11.61;56.78
68822;BME280;55834;50.870;4.606;2022-11-04T10:34:38;99978.84;;;11.73;57.02
68822;BME280;55834;50.870;4.606;2022-11-04T10:37:09;99992.75;;;11.58;56.78
68822;BME280;55834;50.870;4.606;2022-11-04T10:39:42;99984.69;;;11.61;56.81
68822;BME280;55834;50.870;4.606;2022-11-04T10:42:10;99988.84;;;11.67;57.02
68822;BME280;55834;50.870;4.606;2022-11-04T10:44:37;99998.88;;;11.38;56.36
68822;BME280;55834;50.870;4.606;2022-11-04T10:47:30;99995.19;;;10.79;57.31
68822;BME280;55834;50.870;4.606;2022-11-04T10:52:24;99998.47;;;9.21;63.66
68822;BME280;55834;50.870;4.606;2022-11-04T10:54:50;100010.81;;;9.94;62.52
68822;BME280;55834;50.870;4.606;2022-11-04T10:57:21;100013.03;;;10.74;60.62
68822;BME280;55834;50.870;4.606;2022-11-04T10:59:53;100017.13;;;10.81;58.95
68822;BME280;55834;50.870;4.606;2022-11-04T11:05:19;100021.00;;;10.04;60.41
68822;BME280;55834;50.870;4.606;2022-11-04T11:07:52;100026.63;;;10.18;59.77
68822;BME280;55834;50.870;4.606;2022-11-04T11:10:26;100035.63;;;9.64;62.01
68822;BME280;55834;50.870;4.606;2022-11-04T11:12:55;100025.66;;;9.97;61.44
68822;BME280;55834;50.870;4.606;2022-11-04T11:15:28;100027.75;;;10.34;60.11
68822;BME280;55834;50.870;4.606;2022-11-04T11:20:31;100023.28;;;10.13;60.30
68822;BME280;55834;50.870;4.606;2022-11-04T11:22:58;100028.69;;;10.57;59.46
68822;BME280;55834;50.870;4.606;2022-11-04T11:25:35;100033.34;;;10.03;60.83
68822;BME280;55834;50.870;4.606;2022-11-04T11:28:10;100030.22;;;10.63;60.68
68822;BME280;55834;50.870;4.606;2022-11-04T11:30:55;100028.41;;;10.85;58.91
68822;BME280;55834;50.870;4.606;2022-11-04T11:33:31;100027.81;;;10.09;60.94
68822;BME280;55834;50.870;4.606;2022-11-04T11:36:29;100034.06;;;10.54;61.75
68822;BME280;55834;50.870;4.606;2022-11-04T11:39:05;100026.28;;;10.04;61.30
68822;BME280;55834;50.870;4.606;2022-11-04T11:41:57;100031.13;;;10.61;59.94
68822;BME280;55834;50.870;4.606;2022-11-04T11:44:29;100036.44;;;11.04;59.75
68822;BME280;55834;50.870;4.606;2022-11-04T11:47:02;100027.56;;;11.47;58.17
68822;BME280;55834;50.870;4.606;2022-11-04T11:49:31;100026.97;;;11.41;56.58
68822;BME280;55834;50.870;4.606;2022-11-04T12:00:55;100059.84;;;9.75;61.36
68822;BME280;55834;50.870;4.606;2022-11-04T12:03:32;100060.75;;;9.74;62.27
68822;BME280;55834;50.870;4.606;2022-11-04T12:06:42;100067.38;;;10.09;60.64
68822;BME280;55834;50.870;4.606;2022-11-04T12:09:01;100073.97;;;10.45;59.74
68822;BME280;55834;50.870;4.606;2022-11-04T12:25:33;100095.44;;;10.35;60.41
68822;BME280;55834;50.870;4.606;2022-11-04T12:28:10;100091.34;;;10.96;59.45
68822;BME280;55834;50.870;4.606;2022-11-04T12:30:59;100092.91;;;11.01;57.22
68822;BME280;55834;50.870;4.606;2022-11-04T12:33:31;100106.72;;;10.15;60.17
68822;BME280;55834;50.870;4.606;2022-11-04T12:36:22;100109.03;;;9.76;62.64
68822;BME280;55834;50.870;4.606;2022-11-04T12:39:02;100109.16;;;10.69;61.68
68822;BME280;55834;50.870;4.606;2022-11-04T12:41:44;100119.16;;;10.60;59.47
68822;BME280;55834;50.870;4.606;2022-11-04T12:44:34;100110.47;;;10.80;60.43
68822;BME280;55834;50.870;4.606;2022-11-04T12:47:13;100113.72;;;10.87;59.15
68822;BME280;55834;50.870;4.606;2022-11-04T12:53:02;100132.59;;;10.06;59.84
68822;BME280;55834;50.870;4.606;2022-11-04T12:58:47;100142.22;;;9.55;61.81
68822;BME280;55834;50.870;4.606;2022-11-04T13:01:37;100130.66;;;10.11;60.46
68822;BME280;55834;50.870;4.606;2022-11-04T13:04:16;100131.75;;;10.54;58.99
68822;BME280;55834;50.870;4.606;2022-11-04T13:06:49;100136.22;;;10.74;59.52
68822;BME280;55834;50.870;4.606;2022-11-04T13:09:58;100134.78;;;11.11;57.71
68822;BME280;55834;50.870;4.606;2022-11-04T13:12:30;100136.28;;;11.18;56.46
68822;BME280;55834;50.870;4.606;2022-11-04T13:15:01;100149.25;;;10.78;58.11
68822;BME280;55834;50.870;4.606;2022-11-04T13:17:33;100147.34;;;10.82;57.94
68822;BME280;55834;50.870;4.606;2022-11-04T13:20:05;100144.41;;;11.34;57.68
68822;BME280;55834;50.870;4.606;2022-11-04T13:22:41;100159.97;;;11.63;56.50
68822;BME280;55834;50.870;4.606;2022-11-04T13:25:38;100168.31;;;11.08;57.15
68822;BME280;55834;50.870;4.606;2022-11-04T13:28:10;100174.97;;;11.41;57.46
68822;BME280;55834;50.870;4.606;2022-11-04T13:33:50;100180.25;;;10.73;59.47
68822;BME280;55834;50.870;4.606;2022-11-04T13:36:40;100182.69;;;10.06;60.29
68822;BME280;55834;50.870;4.606;2022-11-04T13:39:28;100183.25;;;10.39;60.33
68822;BME280;55834;50.870;4.606;2022-11-04T13:42:10;100183.56;;;10.31;61.05
68822;BME280;55834;50.870;4.606;2022-11-04T13:44:44;100190.50;;;11.04;60.06
68822;BME280;55834;50.870;4.606;2022-11-04T13:47:18;100201.94;;;11.05;58.52
68822;BME280;55834;50.870;4.606;2022-11-04T13:49:53;100206.22;;;10.37;59.85
68822;BME280;55834;50.870;4.606;2022-11-04T13:52:20;100205.63;;;10.29;60.78
68822;BME280;55834;50.870;4.606;2022-11-04T13:54:52;100212.16;;;10.67;59.84
68822;BME280;55834;50.870;4.606;2022-11-04T13:57:24;100220.56;;;10.55;59.31
68822;BME280;55834;50.870;4.606;2022-11-04T14:02:54;100234.88;;;10.23;60.29
68822;BME280;55834;50.870;4.606;2022-11-04T14:18:32;100240.97;;;10.97;59.02
68822;BME280;55834;50.870;4.606;2022-11-04T14:23:32;100258.44;;;11.01;58.95
68822;BME280;55834;50.870;4.606;2022-11-04T14:26:18;100269.69;;;10.32;58.53
68822;BME280;55834;50.870;4.606;2022-11-04T14:28:47;100272.50;;;10.78;60.14
68822;BME280;55834;50.870;4.606;2022-11-04T14:31:34;100267.81;;;10.63;58.04
68822;BME280;55834;50.870;4.606;2022-11-04T14:34:00;100273.50;;;10.50;60.60
68822;BME280;55834;50.870;4.606;2022-11-04T14:36:31;100274.66;;;11.15;58.90
68822;BME280;55834;50.870;4.606;2022-11-04T14:41:49;100289.38;;;11.44;57.13
68822;BME280;55834;50.870;4.606;2022-11-04T14:46:53;100297.22;;;10.77;59.42
68822;BME280;55834;50.870;4.606;2022-11-04T14:49:41;100300.38;;;10.87;60.11
68822;BME280;55834;50.870;4.606;2022-11-04T14:52:27;100300.63;;;10.29;60.43
68822;BME280;55834;50.870;4.606;2022-11-04T14:55:03;100296.41;;;10.98;60.13
68822;BME280;55834;50.870;4.606;2022-11-04T14:57:35;100300.88;;;10.96;59.09
68822;BME280;55834;50.870;4.606;2022-11-04T15:02:44;100308.34;;;11.32;58.73
68822;BME280;55834;50.870;4.606;2022-11-04T15:05:22;100315.41;;;11.32;57.51
68822;BME280;55834;50.870;4.606;2022-11-04T15:07:49;100312.84;;;11.30;57.41
68822;BME280;55834;50.870;4.606;2022-11-04T15:10:22;100330.78;;;10.97;57.59
68822;BME280;55834;50.870;4.606;2022-11-04T15:12:49;100342.03;;;10.78;58.54
68822;BME280;55834;50.870;4.606;2022-11-04T15:15:31;100345.78;;;9.93;58.71
68822;BME280;55834;50.870;4.606;2022-11-04T15:18:18;100353.22;;;10.33;58.11
68822;BME280;55834;50.870;4.606;2022-11-04T15:20:51;100354.34;;;9.42;58.54
68822;BME280;55834;50.870;4.606;2022-11-04T15:23:30;100351.63;;;9.14;60.42